createdAt,value
2022-09-18T00:00:57.618Z,100.00
2022-09-18T00:03:24.728Z,100.00
2022-09-18T00:05:51.372Z,100.00
2022-09-18T00:08:17.978Z,100.00
2022-09-18T00:10:46.819Z,100.00
2022-09-18T00:13:16.448Z,100.00
2022-09-18T00:15:43.017Z,100.00
2022-09-18T00:18:10.002Z,100.00
2022-09-18T00:20:37.604Z,100.00
2022-09-18T00:23:04.369Z,100.00
2022-09-18T00:25:32.399Z,100.00
2022-09-18T00:27:59.402Z,100.00
2022-09-18T00:30:26.002Z,100.00
2022-09-18T00:32:52.640Z,100.00
2022-09-18T00:35:19.236Z,100.00
2022-09-18T00:37:45.963Z,100.00
2022-09-18T00:40:12.597Z,100.00
2022-09-18T00:42:39.287Z,100.00
2022-09-18T00:45:06.188Z,100.00
2022-09-18T00:47:45.552Z,100.00
2022-09-18T00:50:22.071Z,100.00
2022-09-18T00:53:03.584Z,100.00
2022-09-18T00:55:32.898Z,100.00
2022-09-18T00:58:02.180Z,100.00
2022-09-18T01:00:29.709Z,100.00
2022-09-18T01:03:01.330Z,100.00
2022-09-18T01:05:46.890Z,100.00
2022-09-18T01:08:30.713Z,100.00
2022-09-18T01:11:10.984Z,100.00
2022-09-18T01:13:50.838Z,100.00
2022-09-18T01:16:24.778Z,100.00
2022-09-18T01:19:15.884Z,100.00
2022-09-18T01:22:04.946Z,100.00
2022-09-18T01:24:44.222Z,100.00
2022-09-18T01:27:21.012Z,100.00
2022-09-18T01:30:03.536Z,100.00
2022-09-18T01:32:39.425Z,100.00
2022-09-18T01:35:44.090Z,100.00
2022-09-18T01:38:19.655Z,100.00
2022-09-18T01:40:51.307Z,100.00
2022-09-18T01:43:20.866Z,100.00
2022-09-18T01:45:51.661Z,100.00
2022-09-18T01:48:25.282Z,100.00
2022-09-18T01:51:04.989Z,100.00
2022-09-18T01:53:37.158Z,100.00
2022-09-18T01:56:11.933Z,100.00
2022-09-18T01:58:38.797Z,100.00
2022-09-18T02:01:13.424Z,100.00
2022-09-18T02:03:45.754Z,100.00
2022-09-18T02:06:44.663Z,100.00
2022-09-18T02:09:12.089Z,100.00
2022-09-18T02:11:44.253Z,100.00
2022-09-18T02:14:16.301Z,100.00
2022-09-18T02:16:49.598Z,100.00
2022-09-18T02:19:23.325Z,100.00
2022-09-18T02:21:53.590Z,100.00
2022-09-18T02:24:23.096Z,100.00
2022-09-18T02:26:52.077Z,100.00
2022-09-18T02:32:12.691Z,100.00
2022-09-18T02:34:39.283Z,100.00
2022-09-18T02:37:18.957Z,100.00
2022-09-18T02:40:21.244Z,100.00
2022-09-18T02:43:12.778Z,100.00
2022-09-18T02:46:17.653Z,100.00
2022-09-18T02:49:01.133Z,100.00
2022-09-18T02:51:31.236Z,100.00
2022-09-18T02:54:06.964Z,100.00
2022-09-18T02:56:37.370Z,100.00
2022-09-18T02:59:20.059Z,100.00
2022-09-18T03:01:47.527Z,100.00
2022-09-18T03:04:19.644Z,100.00
2022-09-18T03:06:46.241Z,100.00
2022-09-18T03:09:13.732Z,100.00
2022-09-18T03:11:40.315Z,100.00
2022-09-18T03:14:06.899Z,100.00
2022-09-18T03:16:33.599Z,100.00
2022-09-18T03:19:00.226Z,100.00
2022-09-18T03:21:27.419Z,100.00
2022-09-18T03:23:54.501Z,100.00
2022-09-18T03:26:21.173Z,100.00
2022-09-18T03:28:47.968Z,100.00
2022-09-18T03:31:14.919Z,100.00
2022-09-18T03:33:41.640Z,100.00
2022-09-18T03:36:11.089Z,100.00
2022-09-18T03:38:41.165Z,100.00
2022-09-18T03:41:07.744Z,100.00
2022-09-18T03:43:34.677Z,100.00
2022-09-18T03:46:01.517Z,100.00
2022-09-18T03:48:28.365Z,100.00
2022-09-18T03:50:54.957Z,100.00
2022-09-18T03:53:21.492Z,100.00
2022-09-18T03:55:50.494Z,100.00
2022-09-18T03:58:17.145Z,100.00
2022-09-18T04:00:43.802Z,100.00
2022-09-18T04:03:10.495Z,100.00
2022-09-18T04:05:37.047Z,100.00
2022-09-18T04:08:05.354Z,100.00
2022-09-18T04:10:34.712Z,100.00
2022-09-18T04:13:01.684Z,100.00
2022-09-18T04:15:28.377Z,100.00
2022-09-18T04:17:55.173Z,100.00
2022-09-18T04:20:21.804Z,100.00
2022-09-18T04:22:48.459Z,100.00
2022-09-18T04:25:17.728Z,100.00
2022-09-18T04:27:44.277Z,100.00
2022-09-18T04:30:11.619Z,100.00
2022-09-18T04:32:38.284Z,100.00
2022-09-18T04:35:06.064Z,100.00
2022-09-18T04:37:32.757Z,100.00
2022-09-18T04:39:59.470Z,100.00
2022-09-18T04:42:26.163Z,100.00
2022-09-18T04:44:52.732Z,100.00
2022-09-18T04:47:19.312Z,100.00
2022-09-18T04:49:45.990Z,100.00
2022-09-18T04:52:12.553Z,100.00
2022-09-18T04:54:39.245Z,100.00
2022-09-18T04:57:06.065Z,100.00
2022-09-18T04:59:32.973Z,100.00
2022-09-18T05:01:59.870Z,100.00
2022-09-18T05:04:26.535Z,100.00
2022-09-18T05:06:53.325Z,100.00
2022-09-18T05:09:19.895Z,100.00
2022-09-18T05:11:46.465Z,100.00
2022-09-18T05:14:13.103Z,100.00
2022-09-18T05:16:39.733Z,100.00
2022-09-18T05:19:06.683Z,100.00
2022-09-18T05:21:33.208Z,100.00
2022-09-18T05:23:59.670Z,100.00
2022-09-18T05:26:26.968Z,100.00
2022-09-18T05:28:53.553Z,100.00
2022-09-18T05:31:20.111Z,100.00
2022-09-18T05:33:46.661Z,100.00
2022-09-18T05:36:13.230Z,100.00
2022-09-18T05:38:39.796Z,100.00
2022-09-18T05:41:06.920Z,100.00
2022-09-18T05:43:33.583Z,100.00
2022-09-18T05:46:02.238Z,100.00
2022-09-18T05:48:29.010Z,100.00
2022-09-18T05:50:56.733Z,100.00
2022-09-18T05:53:23.474Z,100.00
2022-09-18T05:55:50.300Z,100.00
2022-09-18T05:58:19.821Z,100.00
2022-09-18T06:00:46.945Z,100.00
2022-09-18T06:03:15.523Z,100.00
2022-09-18T06:05:42.991Z,100.00
2022-09-18T06:08:11.238Z,100.00
2022-09-18T06:10:40.448Z,100.00
2022-09-18T06:13:10.611Z,100.00
2022-09-18T06:15:37.236Z,100.00
2022-09-18T06:18:05.498Z,100.00
2022-09-18T06:20:31.954Z,100.00
2022-09-18T06:23:00.262Z,100.00
2022-09-18T06:25:28.523Z,100.00
2022-09-18T06:28:00.349Z,100.00
2022-09-18T06:30:27.993Z,100.00
2022-09-18T06:32:56.794Z,100.00
2022-09-18T06:35:23.841Z,100.00
2022-09-18T06:37:50.420Z,100.00
2022-09-18T06:40:17.099Z,100.00
2022-09-18T06:42:46.082Z,100.00
2022-09-18T06:45:12.766Z,100.00
2022-09-18T06:47:39.195Z,100.00
2022-09-18T06:50:08.009Z,98.97
2022-09-18T06:52:34.552Z,98.56
2022-09-18T06:55:01.223Z,97.91
2022-09-18T06:57:27.868Z,97.18
2022-09-18T06:59:54.465Z,95.24
2022-09-18T07:02:21.193Z,94.45
2022-09-18T07:04:47.821Z,94.10
2022-09-18T07:07:14.414Z,91.84
2022-09-18T07:09:40.988Z,91.63
2022-09-18T07:12:07.659Z,91.42
2022-09-18T07:14:34.398Z,89.60
2022-09-18T07:17:01.346Z,88.98
2022-09-18T07:19:27.908Z,89.28
2022-09-18T07:21:54.513Z,88.28
2022-09-18T07:24:21.139Z,85.38
2022-09-18T07:26:48.165Z,86.81
2022-09-18T07:29:14.837Z,88.24
2022-09-18T07:31:41.779Z,89.08
2022-09-18T07:34:09.433Z,91.03
2022-09-18T07:36:36.144Z,91.96
2022-09-18T07:39:02.942Z,94.22
2022-09-18T07:41:29.539Z,93.27
2022-09-18T07:43:56.312Z,93.18
2022-09-18T07:46:23.086Z,93.71
2022-09-18T07:48:50.065Z,93.05
2022-09-18T07:51:16.821Z,93.37
2022-09-18T07:53:43.390Z,92.23
2022-09-18T07:56:11.563Z,91.04
2022-09-18T07:58:38.751Z,90.11
2022-09-18T08:01:06.615Z,89.57
2022-09-18T08:03:35.069Z,88.61
2022-09-18T08:06:05.045Z,87.31
2022-09-18T08:08:31.769Z,86.50
2022-09-18T08:10:58.319Z,86.21
2022-09-18T08:13:24.921Z,85.49
2022-09-18T08:15:51.588Z,83.06
2022-09-18T08:18:21.288Z,80.52
2022-09-18T08:20:48.020Z,81.62
2022-09-18T08:23:14.748Z,82.20
2022-09-18T08:25:42.222Z,82.20
2022-09-18T08:28:10.076Z,80.05
2022-09-18T08:30:36.695Z,80.01
2022-09-18T08:33:06.249Z,82.21
2022-09-18T08:35:33.714Z,82.84
2022-09-18T08:38:01.045Z,82.20
2022-09-18T08:40:41.191Z,83.29
2022-09-18T08:43:22.099Z,83.26
2022-09-18T08:46:02.972Z,84.46
2022-09-18T08:48:35.096Z,84.55
2022-09-18T08:51:30.864Z,84.16
2022-09-18T08:54:13.449Z,84.48
2022-09-18T08:56:40.141Z,85.50
2022-09-18T08:59:16.698Z,85.47
2022-09-18T09:01:55.880Z,85.22
2022-09-18T09:04:28.576Z,86.61
2022-09-18T09:07:22.295Z,86.70
2022-09-18T09:10:04.585Z,87.22
2022-09-18T09:13:09.629Z,87.61
2022-09-18T09:15:54.410Z,89.23
2022-09-18T09:18:31.092Z,88.68
2022-09-18T09:21:03.010Z,88.33
2022-09-18T09:23:35.746Z,88.92
2022-09-18T09:26:11.477Z,89.51
2022-09-18T09:28:52.994Z,88.85
2022-09-18T09:31:25.377Z,89.06
2022-09-18T09:34:04.999Z,89.62
2022-09-18T09:36:34.704Z,89.58
2022-09-18T09:39:13.518Z,89.92
2022-09-18T09:42:03.490Z,90.65
2022-09-18T09:44:38.592Z,91.06
2022-09-18T09:47:19.059Z,93.80
2022-09-18T09:50:06.379Z,94.39
2022-09-18T09:52:33.184Z,95.53
2022-09-18T09:55:02.081Z,94.85
2022-09-18T09:57:49.517Z,94.27
2022-09-18T10:00:18.667Z,93.41
2022-09-18T10:02:53.053Z,93.19
2022-09-18T10:05:42.918Z,93.23
2022-09-18T10:08:19.642Z,92.71
2022-09-18T10:11:00.136Z,92.91
2022-09-18T10:13:40.721Z,92.17
2022-09-18T10:16:16.558Z,91.48
2022-09-18T10:18:48.494Z,90.84
2022-09-18T10:21:24.800Z,90.26
2022-09-18T10:24:23.591Z,89.37
2022-09-18T10:27:01.114Z,89.78
2022-09-18T10:29:29.337Z,89.38
2022-09-18T10:32:00.160Z,89.47
2022-09-18T10:34:48.865Z,89.72
2022-09-18T10:37:35.259Z,89.40
2022-09-18T10:40:02.308Z,88.51
2022-09-18T10:42:32.441Z,89.68
2022-09-18T10:45:20.559Z,89.17
2022-09-18T10:47:47.328Z,90.30
2022-09-18T10:50:14.452Z,89.48
2022-09-18T10:52:42.563Z,89.32
2022-09-18T10:55:30.895Z,89.95
2022-09-18T10:57:57.594Z,90.12
2022-09-18T11:00:28.113Z,91.01
2022-09-18T11:03:21.312Z,90.26
2022-09-18T11:05:51.700Z,91.74
2022-09-18T11:08:22.115Z,95.39
2022-09-18T11:11:03.090Z,97.37
2022-09-18T11:13:30.649Z,97.78
2022-09-18T11:15:59.949Z,100.00
2022-09-18T11:18:27.750Z,100.00
2022-09-18T11:20:57.504Z,100.00
2022-09-18T11:23:35.561Z,100.00
2022-09-18T11:26:20.669Z,100.00
2022-09-18T11:28:59.989Z,100.00
2022-09-18T11:31:39.791Z,100.00
2022-09-18T11:34:19.527Z,100.00
2022-09-18T11:36:49.879Z,100.00
2022-09-18T11:39:24.529Z,100.00
2022-09-18T11:41:52.601Z,100.00
2022-09-18T11:44:22.947Z,100.00
2022-09-18T11:46:50.171Z,100.00
2022-09-18T11:49:26.105Z,100.00
2022-09-18T11:51:59.467Z,100.00
2022-09-18T11:54:26.349Z,100.00
2022-09-18T11:56:58.527Z,100.00
2022-09-18T11:59:31.720Z,100.00
2022-09-18T12:02:27.225Z,100.00
2022-09-18T12:05:19.392Z,100.00
2022-09-18T12:07:56.833Z,100.00
2022-09-18T12:10:28.343Z,100.00
2022-09-18T12:13:23.113Z,100.00
2022-09-18T12:15:58.103Z,100.00
2022-09-18T12:18:29.663Z,100.00
2022-09-18T12:21:08.099Z,100.00
2022-09-18T12:23:34.710Z,100.00
2022-09-18T12:26:15.441Z,100.00
2022-09-18T12:28:58.360Z,100.00
2022-09-18T12:31:30.897Z,100.00
2022-09-18T12:34:38.065Z,100.00
2022-09-18T12:37:21.246Z,100.00
2022-09-18T12:40:04.436Z,100.00
2022-09-18T12:43:27.072Z,100.00
2022-09-18T12:46:24.979Z,100.00
2022-09-18T12:48:58.973Z,100.00
2022-09-18T12:51:54.493Z,100.00
2022-09-18T12:55:00.577Z,100.00
2022-09-18T12:57:45.042Z,100.00
2022-09-18T13:00:14.633Z,100.00
2022-09-18T13:03:09.395Z,100.00
2022-09-18T13:05:50.190Z,100.00
2022-09-18T13:08:56.945Z,100.00
2022-09-18T13:11:39.626Z,100.00
2022-09-18T13:14:16.020Z,100.00
2022-09-18T13:16:50.481Z,100.00
2022-09-18T13:19:24.430Z,100.00
2022-09-18T13:21:52.665Z,100.00
2022-09-18T13:24:40.465Z,100.00
2022-09-18T13:27:13.492Z,100.00
2022-09-18T13:29:47.171Z,100.00
2022-09-18T13:32:17.642Z,100.00
2022-09-18T13:34:51.353Z,100.00
2022-09-18T13:37:20.064Z,100.00
2022-09-18T13:40:11.814Z,100.00
2022-09-18T13:42:41.366Z,100.00
2022-09-18T13:45:19.900Z,100.00
2022-09-18T13:48:13.501Z,100.00
2022-09-18T13:51:00.395Z,100.00
2022-09-18T13:53:36.169Z,100.00
2022-09-18T13:56:05.266Z,100.00
2022-09-18T13:58:32.466Z,100.00
2022-09-18T14:01:00.995Z,100.00
2022-09-18T14:03:27.983Z,100.00
2022-09-18T14:05:55.417Z,100.00
2022-09-18T14:08:22.554Z,100.00
2022-09-18T14:11:11.424Z,100.00
2022-09-18T14:13:51.502Z,100.00
2022-09-18T14:16:24.207Z,100.00
2022-09-18T14:19:04.709Z,100.00
2022-09-18T14:21:40.265Z,100.00
2022-09-18T14:24:37.857Z,100.00
2022-09-18T14:27:41.995Z,100.00
2022-09-18T14:30:21.144Z,100.00
2022-09-18T14:33:16.904Z,100.00
2022-09-18T14:35:58.855Z,100.00
2022-09-18T14:38:28.765Z,100.00
2022-09-18T14:41:07.302Z,100.00
2022-09-18T14:43:33.991Z,100.00
2022-09-18T14:46:00.816Z,100.00
2022-09-18T14:48:30.135Z,100.00
2022-09-18T14:51:04.919Z,100.00
2022-09-18T14:53:31.840Z,100.00
2022-09-18T14:56:04.281Z,100.00
2022-09-18T14:58:36.802Z,100.00
2022-09-18T15:01:07.119Z,100.00
2022-09-18T15:03:39.727Z,100.00
2022-09-18T15:06:10.648Z,100.00
2022-09-18T15:08:37.947Z,100.00
2022-09-18T15:11:05.469Z,100.00
2022-09-18T15:13:35.706Z,100.00
2022-09-18T15:16:06.274Z,100.00
2022-09-18T15:18:41.321Z,100.00
2022-09-18T15:21:21.203Z,100.00
2022-09-18T15:23:48.002Z,100.00
2022-09-18T15:26:16.932Z,100.00
2022-09-18T15:28:47.777Z,100.00
2022-09-18T15:31:17.594Z,100.00
2022-09-18T15:34:19.665Z,100.00
2022-09-18T15:36:53.780Z,100.00
2022-09-18T15:39:42.588Z,100.00
2022-09-18T15:42:33.005Z,100.00
2022-09-18T15:44:59.552Z,100.00
2022-09-18T15:47:26.261Z,100.00
2022-09-18T15:49:53.323Z,100.00
2022-09-18T15:52:35.391Z,100.00
2022-09-18T15:55:16.128Z,100.00
2022-09-18T15:57:54.875Z,100.00
2022-09-18T16:00:27.249Z,100.00
2022-09-18T16:02:59.878Z,100.00
2022-09-18T16:05:29.117Z,100.00
2022-09-18T16:08:02.186Z,100.00
2022-09-18T16:10:35.042Z,100.00
2022-09-18T16:13:11.329Z,100.00
2022-09-18T16:15:38.301Z,100.00
2022-09-18T16:18:29.292Z,100.00
2022-09-18T16:20:57.767Z,100.00
2022-09-18T16:23:50.849Z,100.00
2022-09-18T16:26:25.143Z,100.00
2022-09-18T16:29:01.579Z,100.00
2022-09-18T16:31:34.345Z,100.00
2022-09-18T16:34:04.284Z,100.00
2022-09-18T16:36:34.520Z,100.00
2022-09-18T16:39:05.409Z,100.00
2022-09-18T16:41:32.986Z,100.00
2022-09-18T16:44:01.024Z,100.00
2022-09-18T16:46:35.404Z,100.00
2022-09-18T16:49:02.201Z,100.00
2022-09-18T16:51:29.059Z,100.00
2022-09-18T16:53:55.681Z,100.00
2022-09-18T16:56:47.374Z,100.00
2022-09-18T16:59:13.965Z,100.00
2022-09-18T17:02:00.391Z,100.00
2022-09-18T17:04:28.476Z,100.00
2022-09-18T17:06:55.347Z,100.00
2022-09-18T17:09:24.008Z,100.00
2022-09-18T17:11:51.748Z,100.00
2022-09-18T17:14:18.591Z,100.00
2022-09-18T17:16:45.443Z,100.00
2022-09-18T17:19:12.914Z,100.00
2022-09-18T17:21:40.026Z,100.00
2022-09-18T17:24:06.695Z,100.00
2022-09-18T17:26:35.212Z,100.00
2022-09-18T17:29:01.811Z,100.00
2022-09-18T17:31:28.502Z,100.00
2022-09-18T17:33:55.751Z,100.00
2022-09-18T17:36:23.504Z,100.00
2022-09-18T17:38:50.306Z,100.00
2022-09-18T17:41:19.425Z,100.00
2022-09-18T17:43:51.240Z,100.00
2022-09-18T17:46:18.302Z,100.00
2022-09-18T17:48:44.958Z,100.00
2022-09-18T17:51:15.952Z,100.00
2022-09-18T17:53:43.897Z,100.00
2022-09-18T17:56:12.609Z,100.00
2022-09-18T17:58:41.456Z,100.00
2022-09-18T18:01:13.561Z,100.00
2022-09-18T18:03:41.191Z,100.00
2022-09-18T18:06:08.760Z,100.00
2022-09-18T18:08:35.322Z,100.00
2022-09-18T18:11:07.832Z,100.00
2022-09-18T18:13:39.378Z,100.00
2022-09-18T18:16:09.361Z,100.00
2022-09-18T18:18:40.134Z,100.00
2022-09-18T18:21:08.121Z,100.00
2022-09-18T18:23:36.230Z,100.00
2022-09-18T18:26:04.882Z,100.00
2022-09-18T18:28:32.720Z,100.00
2022-09-18T18:31:06.347Z,100.00
2022-09-18T18:33:34.436Z,100.00
2022-09-18T18:36:16.271Z,100.00
2022-09-18T18:38:45.761Z,100.00
2022-09-18T18:41:14.173Z,100.00
2022-09-18T18:43:41.506Z,100.00
2022-09-18T18:46:12.368Z,100.00
2022-09-18T18:48:42.331Z,100.00
2022-09-18T18:51:14.696Z,100.00
2022-09-18T18:53:42.853Z,100.00
2022-09-18T18:56:12.024Z,100.00
2022-09-18T18:58:39.432Z,100.00
2022-09-18T19:01:06.266Z,100.00
2022-09-18T19:03:38.136Z,100.00
2022-09-18T19:06:06.556Z,100.00
2022-09-18T19:08:34.540Z,100.00
2022-09-18T19:11:01.958Z,100.00
2022-09-18T19:13:29.700Z,100.00
2022-09-18T19:15:56.317Z,100.00
2022-09-18T19:18:23.257Z,100.00
2022-09-18T19:20:52.428Z,100.00
2022-09-18T19:23:19.971Z,100.00
2022-09-18T19:25:46.735Z,100.00
2022-09-18T19:28:15.646Z,100.00
2022-09-18T19:30:42.745Z,100.00
2022-09-18T19:33:15.313Z,100.00
2022-09-18T19:35:42.092Z,100.00
2022-09-18T19:38:09.871Z,100.00
2022-09-18T19:40:38.742Z,100.00
2022-09-18T19:43:15.025Z,100.00
2022-09-18T19:45:46.710Z,100.00
2022-09-18T19:48:24.703Z,100.00
2022-09-18T19:50:52.899Z,100.00
2022-09-18T19:53:20.554Z,100.00
2022-09-18T19:55:47.849Z,100.00
2022-09-18T19:58:15.993Z,100.00
2022-09-18T20:00:44.189Z,100.00
2022-09-18T20:03:11.589Z,100.00
2022-09-18T20:05:39.675Z,100.00
2022-09-18T20:08:07.310Z,100.00
2022-09-18T20:10:36.598Z,100.00
2022-09-18T20:13:03.753Z,100.00
2022-09-18T20:15:30.534Z,100.00
2022-09-18T20:17:58.391Z,100.00
2022-09-18T20:20:26.134Z,100.00
2022-09-18T20:22:56.226Z,100.00
2022-09-18T20:25:25.257Z,100.00
2022-09-18T20:27:51.878Z,100.00
2022-09-18T20:30:19.737Z,100.00
2022-09-18T20:32:46.296Z,100.00
2022-09-18T20:35:12.773Z,100.00
2022-09-18T20:37:39.414Z,100.00
2022-09-18T20:40:07.956Z,100.00
2022-09-18T20:42:37.430Z,100.00
2022-09-18T20:45:04.388Z,100.00
2022-09-18T20:47:35.355Z,100.00
2022-09-18T20:50:06.761Z,100.00
2022-09-18T20:52:39.380Z,100.00
2022-09-18T20:55:12.665Z,100.00
2022-09-18T20:57:40.827Z,100.00
2022-09-18T21:00:09.955Z,100.00
2022-09-18T21:02:36.946Z,100.00
2022-09-18T21:05:14.868Z,100.00
2022-09-18T21:07:44.890Z,100.00
2022-09-18T21:10:13.655Z,100.00
2022-09-18T21:12:40.334Z,100.00
2022-09-18T21:15:09.814Z,100.00
2022-09-18T21:17:38.201Z,100.00
2022-09-18T21:20:06.750Z,100.00
2022-09-18T21:22:33.538Z,100.00
2022-09-18T21:25:00.212Z,100.00
2022-09-18T21:27:26.988Z,100.00
2022-09-18T21:29:56.723Z,100.00
2022-09-18T21:32:23.594Z,100.00
2022-09-18T21:34:52.841Z,100.00
2022-09-18T21:37:19.357Z,100.00
2022-09-18T21:39:46.322Z,100.00
2022-09-18T21:42:12.883Z,100.00
2022-09-18T21:44:39.745Z,100.00
2022-09-18T21:47:08.492Z,100.00
2022-09-18T21:49:35.356Z,100.00
2022-09-18T21:52:08.320Z,100.00
2022-09-18T21:54:35.066Z,100.00
2022-09-18T21:57:02.569Z,100.00
2022-09-18T21:59:31.308Z,100.00
2022-09-18T22:02:00.878Z,100.00
2022-09-18T22:04:30.772Z,100.00
2022-09-18T22:06:59.133Z,100.00
2022-09-18T22:09:39.033Z,100.00
2022-09-18T22:12:07.927Z,100.00
2022-09-18T22:14:35.983Z,100.00
2022-09-18T22:17:05.645Z,100.00
2022-09-18T22:19:40.543Z,100.00
2022-09-18T22:22:08.369Z,100.00
2022-09-18T22:24:35.103Z,100.00
2022-09-18T22:27:05.966Z,100.00
2022-09-18T22:29:37.059Z,100.00
2022-09-18T22:32:04.014Z,100.00
2022-09-18T22:34:32.305Z,100.00
2022-09-18T22:37:00.260Z,100.00
2022-09-18T22:39:27.202Z,100.00
2022-09-18T22:41:53.851Z,100.00
2022-09-18T22:44:23.911Z,100.00
2022-09-18T22:46:52.596Z,100.00
2022-09-18T22:49:21.431Z,100.00
2022-09-18T22:51:48.601Z,100.00
2022-09-18T22:54:16.880Z,100.00
2022-09-18T22:56:45.964Z,100.00
2022-09-18T22:59:14.661Z,100.00
2022-09-18T23:01:50.503Z,100.00
2022-09-18T23:04:19.169Z,100.00
2022-09-18T23:06:47.958Z,100.00
2022-09-18T23:09:16.048Z,100.00
2022-09-18T23:11:44.259Z,100.00
2022-09-18T23:14:14.114Z,100.00
2022-09-18T23:16:41.410Z,100.00
2022-09-18T23:19:17.235Z,100.00
2022-09-18T23:21:43.902Z,100.00
2022-09-18T23:24:11.470Z,100.00
2022-09-18T23:26:43.704Z,100.00
2022-09-18T23:29:16.809Z,100.00
2022-09-18T23:31:45.244Z,100.00
2022-09-18T23:34:16.881Z,100.00
2022-09-18T23:36:46.658Z,100.00
2022-09-18T23:39:22.632Z,100.00
2022-09-18T23:41:49.636Z,100.00
2022-09-18T23:44:17.603Z,100.00
2022-09-18T23:46:45.295Z,100.00
2022-09-18T23:49:13.188Z,100.00
2022-09-18T23:51:46.442Z,100.00
2022-09-18T23:54:22.305Z,100.00
2022-09-18T23:56:49.376Z,100.00
2022-09-18T23:59:22.443Z,100.00
